createdAt,value
2019-04-06T00:00:16.621Z,22.30
2019-04-06T00:05:17.985Z,25.57
2019-04-06T00:10:20.152Z,25.60
2019-04-06T00:15:21.564Z,24.97
2019-04-06T00:20:23.721Z,26.53
2019-04-06T00:25:25.863Z,26.53
2019-04-06T00:30:27.240Z,29.97
2019-04-06T00:35:28.623Z,30.27
2019-04-06T00:40:30.786Z,28.23
2019-04-06T00:45:32.264Z,26.07
2019-04-06T00:50:34.050Z,24.57
2019-04-06T00:55:35.416Z,28.03
2019-04-06T01:00:36.838Z,25.77
2019-04-06T01:05:38.205Z,24.97
2019-04-06T01:10:39.710Z,26.87
2019-04-06T01:15:41.066Z,26.50
2019-04-06T01:20:42.425Z,24.20
2019-04-06T01:25:43.842Z,29.07
2019-04-06T01:30:45.223Z,24.00
2019-04-06T01:35:46.644Z,25.27
2019-04-06T01:40:48.034Z,26.27
2019-04-06T01:45:50.157Z,24.70
2019-04-06T01:50:51.617Z,26.17
2019-04-06T01:55:52.955Z,29.63
2019-04-06T02:06:24.219Z,28.27
2019-04-06T02:11:26.645Z,26.30
2019-04-06T02:16:28.061Z,23.67
2019-04-06T02:21:38.385Z,27.57
2019-04-06T02:26:39.779Z,27.17
2019-04-06T02:31:45.156Z,28.00
2019-04-06T02:36:49.380Z,24.87
2019-04-06T02:41:50.812Z,23.80
2019-04-06T02:46:52.316Z,28.53
2019-04-06T02:51:53.728Z,27.63
2019-04-06T02:56:55.951Z,25.90
2019-04-06T03:01:57.472Z,27.93
2019-04-06T03:06:58.865Z,31.87
2019-04-06T03:12:00.277Z,28.10
2019-04-06T03:17:02.464Z,31.13
2019-04-06T03:22:04.314Z,27.90
2019-04-06T03:27:06.286Z,26.70
2019-04-06T03:32:08.023Z,31.73
2019-04-06T03:37:09.164Z,27.90
2019-04-06T03:42:11.735Z,26.37
2019-04-06T03:47:12.840Z,24.63
2019-04-06T03:52:14.238Z,29.20
2019-04-06T03:57:16.982Z,27.27
2019-04-06T04:02:16.961Z,29.30
2019-04-06T04:07:19.351Z,23.97
2019-04-06T04:12:20.788Z,25.77
2019-04-06T04:17:22.736Z,31.63
2019-04-06T04:22:23.927Z,28.30
2019-04-06T04:27:29.305Z,30.33
2019-04-06T04:32:27.357Z,27.87
2019-04-06T04:37:29.880Z,30.57
2019-04-06T04:42:46.057Z,27.87
2019-04-06T04:47:54.603Z,28.13
2019-04-06T04:52:55.941Z,28.07
2019-04-06T04:57:57.327Z,27.60
2019-04-06T05:02:59.441Z,32.33
2019-04-06T05:08:00.927Z,34.07
2019-04-06T05:13:02.457Z,28.63
2019-04-06T05:18:04.270Z,31.07
2019-04-06T05:23:05.721Z,30.17
2019-04-06T05:28:07.481Z,26.33
2019-04-06T05:33:08.742Z,31.50
2019-04-06T05:38:10.189Z,26.07
2019-04-06T05:43:11.621Z,30.57
2019-04-06T05:48:13.144Z,31.10
2019-04-06T05:53:14.674Z,31.40
2019-04-06T05:58:16.753Z,24.70
2019-04-06T06:03:18.934Z,31.50
2019-04-06T06:08:21.188Z,31.73
2019-04-06T06:13:22.612Z,33.27
2019-04-06T06:18:27.411Z,33.10
2019-04-06T06:23:25.497Z,30.97
2019-04-06T06:28:27.367Z,29.83
2019-04-06T06:33:28.808Z,27.77
2019-04-06T06:38:30.167Z,35.10
2019-04-06T06:43:31.556Z,31.97
2019-04-06T06:48:33.024Z,34.53
2019-04-06T06:53:34.650Z,29.03
2019-04-06T06:58:36.050Z,29.37
2019-04-06T07:03:37.676Z,32.00
2019-04-06T07:08:39.886Z,27.50
2019-04-06T07:13:41.398Z,31.60
2019-04-06T07:18:43.065Z,34.27
2019-04-06T07:23:48.459Z,29.37
2019-04-06T07:28:58.070Z,27.70
2019-04-06T07:34:06.588Z,30.13
2019-04-06T07:39:08.077Z,31.47
2019-04-06T07:44:09.531Z,36.83
2019-04-06T07:49:11.152Z,35.83
2019-04-06T07:54:12.682Z,33.23
2019-04-06T07:59:14.034Z,37.33
2019-04-06T08:04:15.677Z,35.87
2019-04-06T08:09:17.093Z,36.73
2019-04-06T08:14:18.690Z,32.23
2019-04-06T08:19:20.081Z,36.63
2019-04-06T08:24:21.526Z,35.43
2019-04-06T08:29:23.027Z,35.77
2019-04-06T08:34:24.580Z,32.37
2019-04-06T08:39:26.350Z,32.13
2019-04-06T08:44:27.971Z,34.57
2019-04-06T08:49:29.426Z,31.20
2019-04-06T08:54:30.868Z,32.57
2019-04-06T08:59:32.520Z,30.70
2019-04-06T09:04:33.708Z,30.80
2019-04-06T09:09:35.146Z,32.70
2019-04-06T09:14:45.781Z,30.23
2019-04-06T09:19:47.345Z,30.97
2019-04-06T09:24:48.850Z,31.47
2019-04-06T09:29:51.066Z,29.33
2019-04-06T09:34:52.528Z,26.30
2019-04-06T09:39:54.739Z,30.37
2019-04-06T09:44:57.180Z,31.23
2019-04-06T09:50:03.382Z,26.90
2019-04-06T09:55:06.555Z,29.10
2019-04-06T10:00:14.128Z,28.43
2019-04-06T10:05:15.482Z,21.13
2019-04-06T10:10:18.694Z,27.07
2019-04-06T10:15:26.344Z,24.40
2019-04-06T10:20:32.553Z,25.27
2019-04-06T10:25:40.770Z,21.63
2019-04-06T10:36:14.681Z,24.25
2019-04-06T10:41:36.549Z,24.03
2019-04-06T10:46:39.757Z,17.87
2019-04-06T10:51:47.178Z,17.40
2019-04-06T10:56:50.470Z,18.27
2019-04-06T11:02:02.768Z,18.30
2019-04-06T11:07:10.319Z,16.10
2019-04-06T11:12:14.610Z,16.13
2019-04-06T11:22:43.612Z,18.27
2019-04-06T11:27:50.949Z,16.10
2019-04-06T11:32:58.692Z,18.13
2019-04-06T11:38:00.851Z,17.83
2019-04-06T11:48:35.114Z,18.23
2019-04-06T11:53:37.993Z,21.03
2019-04-06T11:58:40.397Z,19.03
2019-04-06T12:03:46.075Z,19.00
2019-04-06T12:08:47.617Z,15.40
2019-04-06T12:13:50.981Z,18.13
2019-04-06T12:24:35.057Z,20.58
2019-04-06T12:35:13.361Z,16.48
2019-04-06T12:40:16.862Z,18.30
2019-04-06T12:45:22.103Z,17.47
2019-04-06T12:50:29.666Z,18.60
2019-04-06T13:01:14.614Z,18.67
2019-04-06T13:06:23.243Z,15.23
2019-04-06T13:11:30.784Z,15.67
2019-04-06T13:16:33.307Z,16.93
2019-04-06T13:21:46.178Z,12.03
2019-04-06T13:26:48.469Z,13.33
2019-04-06T13:37:40.556Z,12.50
2019-04-06T13:48:14.925Z,11.18
2019-04-06T13:53:18.046Z,7.27
2019-04-06T13:58:23.491Z,8.33
2019-04-06T14:09:12.607Z,9.07
2019-04-06T14:14:19.913Z,6.50
2019-04-06T14:19:24.962Z,8.00
2019-04-06T14:24:30.850Z,7.13
2019-04-06T14:35:31.165Z,7.55
2019-04-06T14:40:35.700Z,6.67
2019-04-06T14:45:36.748Z,6.97
2019-04-06T14:50:38.434Z,6.47
2019-04-06T14:55:52.419Z,6.80
2019-04-06T15:06:37.497Z,6.43
2019-04-06T15:11:38.956Z,7.40
2019-04-06T15:22:12.546Z,6.87
2019-04-06T15:27:20.965Z,7.00
2019-04-06T15:32:26.123Z,5.80
2019-04-06T15:37:28.403Z,5.20
2019-04-06T15:53:41.257Z,6.53
2019-04-06T15:58:42.613Z,7.10
2019-04-06T16:04:00.268Z,5.83
2019-04-06T16:09:03.053Z,6.87
2019-04-06T16:14:05.146Z,5.23
2019-04-06T16:19:09.386Z,5.57
2019-04-06T16:24:10.740Z,5.27
2019-04-06T16:29:13.898Z,5.90
2019-04-06T16:34:23.412Z,5.40
2019-04-06T16:44:59.336Z,5.60
2019-04-06T16:50:00.646Z,5.13
2019-04-06T16:55:05.735Z,3.60
2019-04-06T17:00:18.495Z,3.80
2019-04-06T17:05:12.277Z,5.30
2019-04-06T17:10:17.008Z,4.97
2019-04-06T17:15:37.059Z,4.83
2019-04-06T17:20:54.255Z,4.73
2019-04-06T17:25:55.762Z,5.50
2019-04-06T17:30:58.892Z,6.40
2019-04-06T17:41:32.928Z,6.10
2019-04-06T17:52:12.153Z,6.00
2019-04-06T17:57:20.311Z,6.43
2019-04-06T18:02:23.499Z,6.60
2019-04-06T18:07:27.771Z,5.23
2019-04-06T18:12:35.479Z,6.30
2019-04-06T18:17:36.801Z,6.60
2019-04-06T18:22:39.124Z,5.17
2019-04-06T18:27:40.193Z,6.17
2019-04-06T18:32:42.490Z,6.10
2019-04-06T18:37:54.626Z,5.60
2019-04-06T18:42:55.778Z,4.80
2019-04-06T18:47:58.936Z,4.37
2019-04-06T18:53:00.249Z,5.63
2019-04-06T18:58:10.361Z,5.63
2019-04-06T19:03:15.130Z,4.60
2019-04-06T19:08:13.193Z,5.70
2019-04-06T19:13:23.175Z,5.40
2019-04-06T19:18:24.260Z,5.57
2019-04-06T19:23:25.549Z,5.80
2019-04-06T19:28:26.901Z,5.20
2019-04-06T19:33:28.369Z,3.47
2019-04-06T19:38:29.976Z,3.73
2019-04-06T19:43:31.040Z,3.50
2019-04-06T19:48:32.379Z,5.63
2019-04-06T19:53:34.594Z,4.23
2019-04-06T19:58:37.063Z,3.37
2019-04-06T20:03:39.388Z,3.77
2019-04-06T20:08:39.888Z,3.40
2019-04-06T20:13:42.362Z,3.20
2019-04-06T20:18:43.475Z,3.33
2019-04-06T20:23:44.885Z,4.37
2019-04-06T20:28:46.862Z,3.30
2019-04-06T20:33:51.575Z,3.13
2019-04-06T20:38:49.127Z,3.77
2019-04-06T20:43:50.725Z,3.37
2019-04-06T20:48:52.564Z,4.47
2019-04-06T20:53:55.142Z,4.33
2019-04-06T20:58:56.494Z,2.93
2019-04-06T21:04:00.863Z,4.17
2019-04-06T21:08:58.681Z,3.70
2019-04-06T21:14:00.003Z,3.40
2019-04-06T21:19:02.518Z,4.97
2019-04-06T21:24:04.690Z,3.60
2019-04-06T21:29:06.326Z,3.17
2019-04-06T21:34:12.019Z,2.97
2019-04-06T21:39:08.480Z,4.17
2019-04-06T21:44:10.068Z,3.03
2019-04-06T21:49:12.264Z,2.57
2019-04-06T21:54:13.949Z,3.23
2019-04-06T21:59:16.728Z,2.80
2019-04-06T22:04:23.736Z,2.40
2019-04-06T22:09:18.906Z,2.90
2019-04-06T22:14:20.963Z,3.13
2019-04-06T22:19:22.508Z,2.97
2019-04-06T22:24:23.966Z,5.60
2019-04-06T22:29:25.062Z,3.53
2019-04-06T22:34:36.409Z,2.17
2019-04-06T22:39:28.324Z,2.57
2019-04-06T22:44:29.132Z,2.60
2019-04-06T22:49:30.649Z,1.80
2019-04-06T22:54:32.262Z,2.17
2019-04-06T22:59:33.640Z,4.17
2019-04-06T23:04:48.491Z,1.87
2019-04-06T23:09:44.037Z,2.20
2019-04-06T23:14:45.484Z,2.40
2019-04-06T23:19:46.890Z,2.93
2019-04-06T23:24:56.812Z,2.63
2019-04-06T23:29:58.767Z,3.53
2019-04-06T23:35:01.976Z,4.17
2019-04-06T23:40:00.923Z,3.93
2019-04-06T23:45:02.509Z,4.47
2019-04-06T23:50:03.651Z,3.77
2019-04-06T23:55:05.065Z,3.57
